Time;durP1;ratioP1;P1;durP2;ratioP2;P2;SDS_P1;SDS_P2;PMS_P1;PMS_P2;Temp;Humidity;BMP_temperature;BMP_pressure;BME280_temperature;BME280_humidity;BME280_pressure;Samples;Min_cycle;Max_cycle;Signal;HPM_P1;HPM_P2
2021/06/30 00:01:00;;;;;;;33.90;21.33;;;;;;;;;;6248701;22;20111;-80
2021/06/30 00:03:26;;;;;;;31.27;20.45;;;;;;;;;;6248971;22;20031;-80
2021/06/30 00:05:58;;;;;;;26.88;18.98;;;;;;;;;;6248510;22;20306;-80
2021/06/30 00:08:24;;;;;;;25.58;19.77;;;;;;;;;;6275838;22;20075;-80
2021/06/30 00:10:56;;;;;;;27.77;19.83;;;;;;;;;;6274962;22;20027;-80
2021/06/30 00:13:24;;;;;;;29.70;19.00;;;;;;;;;;6248140;22;20103;-81
2021/06/30 00:15:51;;;;;;;29.05;19.23;;;;;;;;;;6249256;22;20027;-80
2021/06/30 00:18:19;;;;;;;24.27;18.25;;;;;;;;;;6276886;22;20024;-81
2021/06/30 00:20:51;;;;;;;26.77;17.70;;;;;;;;;;6253065;22;20037;-81
2021/06/30 00:23:18;;;;;;;24.55;17.42;;;;;;;;;;6251278;22;20389;-81
2021/06/30 00:25:49;;;;;;;25.55;18.63;;;;;;;;;;6250375;22;20049;-81
2021/06/30 00:28:16;;;;;;;31.77;18.75;;;;;;;;;;6250918;22;20171;-80
2021/06/30 00:30:54;;;;;;;26.35;16.80;;;;;;;;;;6252947;22;20324;-81
2021/06/30 00:33:20;;;;;;;24.08;16.90;;;;;;;;;;6277733;22;20453;-81
2021/06/30 00:35:47;;;;;;;22.05;17.40;;;;;;;;;;6279176;22;20059;-81
2021/06/30 00:38:18;;;;;;;25.58;17.98;;;;;;;;;;6277895;22;20030;-81
2021/06/30 00:40:50;;;;;;;21.77;16.25;;;;;;;;;;6277949;22;20066;-81
2021/06/30 00:43:21;;;;;;;26.75;15.95;;;;;;;;;;6277686;22;20042;-81
2021/06/30 00:45:48;;;;;;;21.75;16.00;;;;;;;;;;6259932;22;20048;-81
2021/06/30 00:48:20;;;;;;;20.98;13.93;;;;;;;;;;6267346;22;20050;-81
2021/06/30 00:50:47;;;;;;;20.38;15.85;;;;;;;;;;6290873;22;20028;-81
2021/06/30 00:53:18;;;;;;;29.20;15.55;;;;;;;;;;6254204;22;20028;-81
2021/06/30 00:55:50;;;;;;;20.05;14.27;;;;;;;;;;6254732;22;20031;-81
2021/06/30 00:58:24;;;;;;;20.52;14.70;;;;;;;;;;6278724;22;20024;-81
2021/06/30 01:00:56;;;;;;;25.65;16.42;;;;;;;;;;6279081;22;20160;-81
2021/06/30 01:03:28;;;;;;;27.40;16.60;;;;;;;;;;6253792;22;20033;-81
2021/06/30 01:05:59;;;;;;;23.38;16.17;;;;;;;;;;6279006;22;20158;-81
2021/06/30 01:08:27;;;;;;;24.55;16.25;;;;;;;;;;6250736;22;20394;-81
2021/06/30 01:10:59;;;;;;;26.33;16.88;;;;;;;;;;6278204;22;20035;-81
2021/06/30 01:13:31;;;;;;;27.38;19.27;;;;;;;;;;6278114;22;20172;-81
2021/06/30 01:16:00;;;;;;;29.83;18.92;;;;;;;;;;6250115;22;20023;-81
2021/06/30 01:18:30;;;;;;;21.95;16.63;;;;;;;;;;6277968;22;20242;-81
2021/06/30 01:20:57;;;;;;;34.03;21.45;;;;;;;;;;6276741;22;20034;-81
2021/06/30 01:23:24;;;;;;;34.75;21.50;;;;;;;;;;6249920;22;20030;-81
2021/06/30 01:25:54;;;;;;;36.88;22.85;;;;;;;;;;6280444;22;20054;-81
2021/06/30 01:28:26;;;;;;;36.00;21.77;;;;;;;;;;6279568;22;20051;-81
2021/06/30 01:30:58;;;;;;;37.90;22.10;;;;;;;;;;6277564;22;20037;-81
2021/06/30 01:33:29;;;;;;;42.05;23.92;;;;;;;;;;6254044;22;20028;-81
2021/06/30 01:36:01;;;;;;;44.80;25.63;;;;;;;;;;6253000;22;20305;-81
2021/06/30 01:38:33;;;;;;;53.00;27.70;;;;;;;;;;6254108;22;20004;-82
2021/06/30 01:41:05;;;;;;;49.80;27.83;;;;;;;;;;6252700;22;20024;-81
2021/06/30 01:43:36;;;;;;;74.90;30.73;;;;;;;;;;6253117;22;20027;-82
2021/06/30 01:46:02;;;;;;;71.10;30.75;;;;;;;;;;6278981;22;20031;-81
2021/06/30 01:48:29;;;;;;;76.88;29.73;;;;;;;;;;6280666;22;20052;-82
2021/06/30 01:50:59;;;;;;;72.75;30.60;;;;;;;;;;6252396;22;20114;-80
2021/06/30 01:53:30;;;;;;;73.03;29.42;;;;;;;;;;6253320;22;20034;-80
2021/06/30 01:56:02;;;;;;;70.88;30.75;;;;;;;;;;6279170;22;20043;-81
2021/06/30 01:58:33;;;;;;;48.05;27.30;;;;;;;;;;6280143;22;20034;-81
2021/06/30 02:01:00;;;;;;;48.63;26.98;;;;;;;;;;6285924;22;20064;-82
2021/06/30 02:03:31;;;;;;;50.08;28.33;;;;;;;;;;6274019;22;20027;-81
2021/06/30 02:05:58;;;;;;;53.17;30.20;;;;;;;;;;6259212;22;20073;-82
2021/06/30 02:08:29;;;;;;;80.65;30.95;;;;;;;;;;6254375;22;20035;-81
2021/06/30 02:10:56;;;;;;;58.90;30.85;;;;;;;;;;6279274;22;20031;-80
2021/06/30 02:13:22;;;;;;;63.20;32.17;;;;;;;;;;6251777;22;20031;-82
2021/06/30 02:15:49;;;;;;;62.47;31.67;;;;;;;;;;6252371;22;20028;-81
2021/06/30 02:18:16;;;;;;;75.55;34.67;;;;;;;;;;6251483;22;20023;-81
2021/06/30 02:20:42;;;;;;;62.13;32.55;;;;;;;;;;6281918;22;20027;-81
2021/06/30 02:23:08;;;;;;;70.75;33.55;;;;;;;;;;6279294;22;20075;-80
2021/06/30 02:25:35;;;;;;;84.82;36.42;;;;;;;;;;6252132;22;20027;-80
2021/06/30 02:28:07;;;;;;;72.22;35.35;;;;;;;;;;6277178;22;20023;-80
2021/06/30 02:30:38;;;;;;;84.00;35.15;;;;;;;;;;6253220;22;20104;-81
2021/06/30 02:33:05;;;;;;;69.32;34.78;;;;;;;;;;6279659;22;20078;-81
2021/06/30 02:35:32;;;;;;;65.72;34.33;;;;;;;;;;6252275;22;20088;-80
2021/06/30 02:37:59;;;;;;;75.22;37.92;;;;;;;;;;6249830;22;20103;-81
2021/06/30 02:40:30;;;;;;;62.45;33.53;;;;;;;;;;6251159;22;20368;-80
2021/06/30 02:42:57;;;;;;;90.40;37.08;;;;;;;;;;6277246;22;20043;-81
2021/06/30 02:45:29;;;;;;;75.63;36.97;;;;;;;;;;6251705;22;20089;-81
2021/06/30 02:47:55;;;;;;;75.38;36.90;;;;;;;;;;6250550;22;20031;-81
2021/06/30 02:50:22;;;;;;;79.60;38.88;;;;;;;;;;6253061;22;20032;-81
2021/06/30 02:52:50;;;;;;;121.60;36.72;;;;;;;;;;6286455;22;20062;-79
2021/06/30 02:55:17;;;;;;;77.97;36.80;;;;;;;;;;6263328;22;20027;-80
2021/06/30 02:57:44;;;;;;;84.50;37.72;;;;;;;;;;6253972;22;20433;-81
2021/06/30 03:00:13;;;;;;;93.50;39.08;;;;;;;;;;6276631;22;20282;-81
2021/06/30 03:02:44;;;;;;;103.38;41.30;;;;;;;;;;6250500;22;20024;-80
2021/06/30 03:05:12;;;;;;;108.07;40.83;;;;;;;;;;6277031;22;20058;-81
2021/06/30 03:07:44;;;;;;;104.50;41.75;;;;;;;;;;6276558;22;20034;-81
2021/06/30 03:10:11;;;;;;;102.25;42.25;;;;;;;;;;6248620;22;20460;-81
2021/06/30 03:12:41;;;;;;;105.80;44.88;;;;;;;;;;6251272;22;20139;-81
2021/06/30 03:15:13;;;;;;;108.57;44.35;;;;;;;;;;6246057;23;20063;-80
2021/06/30 03:17:45;;;;;;;111.55;44.95;;;;;;;;;;6246755;23;20046;-80
2021/06/30 03:20:16;;;;;;;106.88;43.05;;;;;;;;;;6246800;23;20039;-81
2021/06/30 03:22:43;;;;;;;104.15;42.72;;;;;;;;;;6246194;22;20111;-81
2021/06/30 03:25:14;;;;;;;96.65;41.15;;;;;;;;;;6247355;22;20024;-81
2021/06/30 03:27:45;;;;;;;98.20;39.20;;;;;;;;;;6246271;22;20070;-81
2021/06/30 03:30:17;;;;;;;105.80;42.05;;;;;;;;;;6246344;23;20028;-81
2021/06/30 03:32:49;;;;;;;110.05;44.00;;;;;;;;;;6244387;22;20023;-81
2021/06/30 03:35:20;;;;;;;100.18;40.70;;;;;;;;;;6245105;23;20310;-80
2021/06/30 03:37:52;;;;;;;90.72;38.58;;;;;;;;;;6245430;22;20072;-81
2021/06/30 03:40:24;;;;;;;86.93;37.33;;;;;;;;;;6245966;22;20030;-81
2021/06/30 03:42:55;;;;;;;89.30;39.58;;;;;;;;;;6244464;22;20035;-81
2021/06/30 03:45:27;;;;;;;106.63;39.65;;;;;;;;;;6245103;23;20062;-81
2021/06/30 03:47:58;;;;;;;98.32;40.13;;;;;;;;;;6243686;23;20063;-81
2021/06/30 03:50:29;;;;;;;85.28;38.55;;;;;;;;;;6245512;23;20024;-81
2021/06/30 03:52:56;;;;;;;98.70;38.58;;;;;;;;;;6243456;23;20025;-81
2021/06/30 03:55:27;;;;;;;96.68;38.95;;;;;;;;;;6244966;23;20063;-81
2021/06/30 03:57:59;;;;;;;92.32;38.85;;;;;;;;;;6244412;23;20020;-81
2021/06/30 04:00:30;;;;;;;91.53;36.17;;;;;;;;;;6242919;23;20031;-83
2021/06/30 04:03:02;;;;;;;86.55;39.00;;;;;;;;;;6250219;23;20209;-81
2021/06/30 04:05:28;;;;;;;80.38;34.95;;;;;;;;;;6248187;23;20024;-81
2021/06/30 04:07:58;;;;;;;86.35;34.78;;;;;;;;;;6245396;23;20052;-81
2021/06/30 04:10:26;;;;;;;68.35;32.58;;;;;;;;;;6246693;23;20329;-81
2021/06/30 04:12:57;;;;;;;81.38;33.70;;;;;;;;;;6246687;23;20020;-81
2021/06/30 04:15:24;;;;;;;68.63;32.60;;;;;;;;;;6271154;22;20306;-81
2021/06/30 04:17:58;;;;;;;69.72;33.38;;;;;;;;;;6275929;22;20062;-81
2021/06/30 04:20:28;;;;;;;64.50;30.98;;;;;;;;;;6278475;22;20054;-81
2021/06/30 04:22:59;;;;;;;64.78;32.20;;;;;;;;;;6278264;22;20106;-81
2021/06/30 04:25:25;;;;;;;68.13;33.45;;;;;;;;;;6274388;22;20023;-80
2021/06/30 04:27:52;;;;;;;70.53;31.48;;;;;;;;;;6247969;22;20028;-80
2021/06/30 04:30:19;;;;;;;182.70;34.92;;;;;;;;;;6249967;22;20070;-81
2021/06/30 04:32:50;;;;;;;64.82;30.02;;;;;;;;;;6271831;22;20032;-82
2021/06/30 04:35:17;;;;;;;76.25;32.38;;;;;;;;;;6247826;22;20351;-81
2021/06/30 04:37:44;;;;;;;60.60;29.83;;;;;;;;;;6249310;22;20028;-81
2021/06/30 04:40:15;;;;;;;79.78;32.22;;;;;;;;;;6276167;22;20024;-81
2021/06/30 04:42:46;;;;;;;57.50;29.38;;;;;;;;;;6250661;22;20019;-83
2021/06/30 04:45:17;;;;;;;57.47;28.27;;;;;;;;;;6248616;22;20188;-81
2021/06/30 04:47:43;;;;;;;63.38;30.33;;;;;;;;;;6248082;22;20031;-82
2021/06/30 04:50:10;;;;;;;69.13;27.40;;;;;;;;;;6249636;22;20402;-82
2021/06/30 04:52:45;;;;;;;62.90;29.25;;;;;;;;;;6273955;22;20028;-83
2021/06/30 04:55:11;;;;;;;50.30;27.65;;;;;;;;;;6247008;22;20211;-80
2021/06/30 04:57:45;;;;;;;71.53;27.85;;;;;;;;;;6246486;22;20277;-80
2021/06/30 05:00:16;;;;;;;70.97;28.77;;;;;;;;;;6273822;22;20413;-82
2021/06/30 05:02:43;;;;;;;54.40;27.30;;;;;;;;;;6249755;22;20027;-81
2021/06/30 05:05:10;;;;;;;56.53;26.45;;;;;;;;;;6262141;22;20023;-81
2021/06/30 05:07:37;;;;;;;57.08;28.77;;;;;;;;;;6289137;22;20062;-82
2021/06/30 05:10:09;;;;;;;54.50;28.25;;;;;;;;;;6256148;22;20038;-82
2021/06/30 05:12:38;;;;;;;56.53;27.23;;;;;;;;;;6277308;22;20135;-82
2021/06/30 05:15:05;;;;;;;63.42;30.80;;;;;;;;;;6251455;22;20027;-82
2021/06/30 05:17:32;;;;;;;66.05;29.23;;;;;;;;;;6277015;22;20055;-82
2021/06/30 05:20:05;;;;;;;56.17;28.70;;;;;;;;;;6250860;22;20542;-82
2021/06/30 05:22:37;;;;;;;65.80;29.60;;;;;;;;;;6276946;22;20100;-81
2021/06/30 05:25:08;;;;;;;57.72;29.70;;;;;;;;;;6247914;22;20043;-80
2021/06/30 05:27:47;;;;;;;59.50;28.33;;;;;;;;;;6249031;22;20514;-81
2021/06/30 05:30:13;;;;;;;70.65;30.98;;;;;;;;;;6270079;22;20027;-80
2021/06/30 05:32:40;;;;;;;65.65;30.20;;;;;;;;;;6242360;22;20054;-80
2021/06/30 05:35:20;;;;;;;60.60;30.23;;;;;;;;;;6244382;22;20038;-79
2021/06/30 05:37:47;;;;;;;71.38;31.50;;;;;;;;;;6242297;22;20401;-80
2021/06/30 05:40:18;;;;;;;69.43;32.63;;;;;;;;;;6242116;22;20084;-79
2021/06/30 05:42:56;;;;;;;72.18;32.78;;;;;;;;;;6233181;22;20409;-81
2021/06/30 05:45:23;;;;;;;54.72;29.67;;;;;;;;;;6268276;22;20448;-80
2021/06/30 05:47:49;;;;;;;74.95;30.27;;;;;;;;;;6268032;22;20321;-80
2021/06/30 05:50:17;;;;;;;69.43;31.25;;;;;;;;;;6245496;22;20051;-81
2021/06/30 05:52:49;;;;;;;62.00;26.88;;;;;;;;;;6269804;22;20039;-80
2021/06/30 05:55:21;;;;;;;52.85;27.08;;;;;;;;;;6267018;22;20054;-80
2021/06/30 05:57:47;;;;;;;49.20;24.65;;;;;;;;;;6243656;22;20047;-80
2021/06/30 06:00:21;;;;;;;60.00;25.73;;;;;;;;;;6265636;22;20221;-79
2021/06/30 06:02:53;;;;;;;55.80;25.92;;;;;;;;;;6276340;22;20027;-80
2021/06/30 06:05:26;;;;;;;56.75;27.35;;;;;;;;;;6267138;22;20031;-79
2021/06/30 06:07:52;;;;;;;53.28;27.67;;;;;;;;;;6266425;22;20327;-81
2021/06/30 06:10:24;;;;;;;60.95;29.10;;;;;;;;;;6242818;22;20315;-79
2021/06/30 06:12:56;;;;;;;58.58;28.67;;;;;;;;;;6251871;22;20055;-80
2021/06/30 06:15:22;;;;;;;59.47;28.88;;;;;;;;;;6248262;22;20056;-80
2021/06/30 06:17:54;;;;;;;52.58;26.70;;;;;;;;;;6265824;22;20091;-80
2021/06/30 06:20:20;;;;;;;52.47;26.50;;;;;;;;;;6266723;22;20023;-81
2021/06/30 06:22:47;;;;;;;61.45;28.23;;;;;;;;;;6242479;22;20093;-79
2021/06/30 06:25:14;;;;;;;57.03;29.30;;;;;;;;;;6277168;22;20047;-81
2021/06/30 06:27:46;;;;;;;54.75;27.90;;;;;;;;;;6271487;22;20043;-82
2021/06/30 06:30:29;;;;;;;51.80;27.35;;;;;;;;;;6270290;22;20432;-81
2021/06/30 06:32:57;;;;;;;57.75;27.38;;;;;;;;;;6242181;22;20027;-81
2021/06/30 06:35:43;;;;;;;59.25;27.17;;;;;;;;;;6268810;22;20094;-79
2021/06/30 06:38:34;;;;;;;57.73;28.47;;;;;;;;;;6246564;22;20023;-81
2021/06/30 06:41:55;;;;;;;56.63;28.10;;;;;;;;;;6246558;22;20027;-82
2021/06/30 06:44:51;;;;;;;59.35;28.75;;;;;;;;;;6139393;23;20064;-81
2021/06/30 06:47:32;;;;;;;61.72;28.75;;;;;;;;;;6201098;22;20468;-80
2021/06/30 06:50:19;;;;;;;59.38;27.80;;;;;;;;;;6246533;22;20398;-81
2021/06/30 06:52:58;;;;;;;49.65;25.17;;;;;;;;;;6244749;22;20451;-81
2021/06/30 06:55:43;;;;;;;48.20;25.48;;;;;;;;;;6268628;22;20024;-80
2021/06/30 07:01:42;;;;;;;37.90;23.25;;;;;;;;;;6199955;23;20025;-81
2021/06/30 07:04:17;;;;;;;47.85;25.95;;;;;;;;;;6204975;23;20029;-82
2021/06/30 07:07:02;;;;;;;46.95;25.98;;;;;;;;;;6202263;23;20029;-82
2021/06/30 07:15:58;;;;;;;70.95;32.17;;;;;;;;;;6206026;23;20055;-81
2021/06/30 07:18:30;;;;;;;66.72;32.15;;;;;;;;;;6213462;23;20048;-82
2021/06/30 07:21:08;;;;;;;61.17;32.05;;;;;;;;;;6215972;23;20028;-81
2021/06/30 07:23:47;;;;;;;68.05;34.08;;;;;;;;;;6213037;23;20025;-81
2021/06/30 07:26:33;;;;;;;68.28;33.88;;;;;;;;;;6204532;23;20024;-82
2021/06/30 07:29:24;;;;;;;69.85;33.88;;;;;;;;;;6205561;23;20028;-81
2021/06/30 07:32:16;;;;;;;60.35;31.08;;;;;;;;;;6208202;23;20047;-81
2021/06/30 07:34:59;;;;;;;62.85;29.95;;;;;;;;;;6219925;22;20213;-82
2021/06/30 07:37:39;;;;;;;61.08;31.63;;;;;;;;;;6272168;22;20024;-82
2021/06/30 07:40:11;;;;;;;55.00;30.73;;;;;;;;;;6239218;22;20024;-83
2021/06/30 07:42:43;;;;;;;63.60;29.00;;;;;;;;;;6239873;22;20263;-81
2021/06/30 07:45:22;;;;;;;49.05;28.13;;;;;;;;;;6273063;22;20031;-82
2021/06/30 07:47:49;;;;;;;50.90;27.60;;;;;;;;;;6267231;22;20062;-81
2021/06/30 07:50:19;;;;;;;46.70;27.38;;;;;;;;;;6271942;22;20027;-81
2021/06/30 07:52:49;;;;;;;52.30;26.45;;;;;;;;;;6246413;22;20020;-82
2021/06/30 07:55:24;;;;;;;38.53;25.40;;;;;;;;;;6244301;22;20125;-81
2021/06/30 07:57:51;;;;;;;42.50;23.15;;;;;;;;;;6242126;22;20290;-80
2021/06/30 08:00:21;;;;;;;37.33;22.20;;;;;;;;;;6243300;22;20385;-81
2021/06/30 08:03:11;;;;;;;30.95;21.33;;;;;;;;;;6245220;22;20028;-83
2021/06/30 08:05:38;;;;;;;32.63;20.48;;;;;;;;;;6268692;22;20510;-82
2021/06/30 08:08:12;;;;;;;26.77;19.73;;;;;;;;;;6267643;22;20093;-81
2021/06/30 08:10:54;;;;;;;25.38;18.73;;;;;;;;;;6269185;22;20035;-81
2021/06/30 08:13:39;;;;;;;20.90;15.13;;;;;;;;;;6247428;22;20035;-82
2021/06/30 08:16:34;;;;;;;;;;;;;;;;;;;;;
2021/06/30 08:19:24;;;;;;;;;;;;;;;;;;6272467;22;20038;-81
2021/06/30 08:22:20;;;;;;;17.33;13.95;;;;;;;;;;6271064;22;19968;-82
2021/06/30 08:25:12;;;;;;;23.90;14.45;;;;;;;;;;6096646;23;20123;-81
2021/06/30 08:27:49;;;;;;;20.35;14.77;;;;;;;;;;6122533;23;20127;-81
2021/06/30 08:30:22;;;;;;;19.15;13.30;;;;;;;;;;6121782;23;20033;-82
2021/06/30 08:32:50;;;;;;;18.40;12.95;;;;;;;;;;6122853;23;20121;-81
2021/06/30 08:35:31;;;;;;;18.02;14.10;;;;;;;;;;6150843;23;20036;-81
2021/06/30 08:38:18;;;;;;;17.30;14.05;;;;;;;;;;6123807;23;20034;-85
2021/06/30 08:40:45;;;;;;;19.42;14.25;;;;;;;;;;6127159;23;20037;-81
2021/06/30 08:43:11;;;;;;;24.23;17.92;;;;;;;;;;6147703;23;20096;-83
2021/06/30 08:45:38;;;;;;;18.50;15.10;;;;;;;;;;6147900;23;20025;-81
2021/06/30 08:48:08;;;;;;;32.47;19.13;;;;;;;;;;6147500;23;20112;-81
2021/06/30 08:50:42;;;;;;;27.80;19.00;;;;;;;;;;6122752;23;20029;-81
2021/06/30 08:53:10;;;;;;;28.45;19.98;;;;;;;;;;6117703;23;20061;-81
2021/06/30 08:55:38;;;;;;;33.55;21.55;;;;;;;;;;6117351;23;20057;-81
2021/06/30 08:58:05;;;;;;;52.50;32.35;;;;;;;;;;6121814;23;20040;-83
2021/06/30 09:00:33;;;;;;;45.65;29.10;;;;;;;;;;6122835;23;20025;-80
2021/06/30 09:03:02;;;;;;;46.83;31.42;;;;;;;;;;6238894;22;20047;-82
2021/06/30 09:07:58;;;;;;;52.15;36.67;;;;;;;;;;6268416;22;20038;-82
2021/06/30 09:10:33;;;;;;;53.30;36.70;;;;;;;;;;6266524;22;20062;-82
2021/06/30 09:13:02;;;;;;;55.08;38.22;;;;;;;;;;6248830;22;20011;-82
2021/06/30 09:15:33;;;;;;;56.70;37.20;;;;;;;;;;6238107;23;20035;-82
2021/06/30 09:18:22;;;;;;;53.95;37.17;;;;;;;;;;6234162;22;20034;-82
2021/06/30 09:20:49;;;;;;;57.35;37.22;;;;;;;;;;6240510;23;20035;-80
2021/06/30 09:23:15;;;;;;;69.22;42.30;;;;;;;;;;6245454;23;20219;-81
2021/06/30 09:25:43;;;;;;;58.25;41.55;;;;;;;;;;6246300;22;20035;-81
2021/06/30 09:28:16;;;;;;;64.13;41.92;;;;;;;;;;6241913;22;20047;-81
2021/06/30 09:30:55;;;;;;;66.75;41.88;;;;;;;;;;6255372;23;20035;-80
2021/06/30 09:33:23;;;;;;;61.78;40.92;;;;;;;;;;6254836;23;20028;-81
2021/06/30 09:36:05;;;;;;;59.70;40.25;;;;;;;;;;6238021;23;20032;-81
2021/06/30 09:38:34;;;;;;;60.92;39.20;;;;;;;;;;6239442;23;20051;-81
2021/06/30 09:41:04;;;;;;;49.33;33.15;;;;;;;;;;6238197;23;20028;-81
2021/06/30 09:43:37;;;;;;;46.33;29.13;;;;;;;;;;6241837;22;20036;-80
2021/06/30 09:46:17;;;;;;;43.42;26.15;;;;;;;;;;6245992;23;20051;-80
2021/06/30 09:48:43;;;;;;;34.67;23.27;;;;;;;;;;6239607;22;20028;-82
2021/06/30 09:51:16;;;;;;;30.20;20.58;;;;;;;;;;6236799;23;20503;-82
2021/06/30 09:53:43;;;;;;;25.50;18.98;;;;;;;;;;6239590;23;20082;-81
2021/06/30 09:56:33;;;;;;;27.50;18.23;;;;;;;;;;6245160;23;20028;-82
2021/06/30 09:59:15;;;;;;;24.75;17.02;;;;;;;;;;6239149;22;20372;-81
2021/06/30 10:01:50;;;;;;;26.13;17.70;;;;;;;;;;6237984;22;20043;-81
2021/06/30 10:04:39;;;;;;;24.95;16.58;;;;;;;;;;6238925;23;20240;-80
2021/06/30 10:07:16;;;;;;;21.70;14.95;;;;;;;;;;6235053;23;20122;-80
2021/06/30 10:10:17;;;;;;;20.73;15.15;;;;;;;;;;6238376;23;20084;-80
2021/06/30 10:12:44;;;;;;;25.88;14.90;;;;;;;;;;6237242;23;20028;-81
2021/06/30 10:15:18;;;;;;;22.33;14.73;;;;;;;;;;6237604;23;20369;-81
2021/06/30 10:17:51;;;;;;;21.48;15.00;;;;;;;;;;6236100;23;20031;-80
2021/06/30 10:20:18;;;;;;;21.08;14.57;;;;;;;;;;6240162;23;20058;-82
2021/06/30 10:22:48;;;;;;;19.90;14.27;;;;;;;;;;6240271;22;20080;-81
2021/06/30 10:25:23;;;;;;;16.95;13.43;;;;;;;;;;6238023;23;20051;-80
2021/06/30 10:27:55;;;;;;;17.02;13.77;;;;;;;;;;6236702;22;20278;-81
2021/06/30 10:30:50;;;;;;;18.58;13.85;;;;;;;;;;6237570;22;20127;-81
2021/06/30 10:33:40;;;;;;;19.38;13.07;;;;;;;;;;6235111;23;20510;-81
2021/06/30 10:36:45;;;;;;;17.45;13.25;;;;;;;;;;6236542;22;20193;-80
2021/06/30 10:39:17;;;;;;;18.17;13.27;;;;;;;;;;6236297;23;20030;-82
2021/06/30 10:41:44;;;;;;;20.42;13.38;;;;;;;;;;6232926;23;20047;-82
2021/06/30 10:44:46;;;;;;;16.00;12.60;;;;;;;;;;6233144;23;20378;-82
2021/06/30 10:47:40;;;;;;;17.48;12.93;;;;;;;;;;6238822;22;20587;-82
2021/06/30 10:50:22;;;;;;;16.80;12.32;;;;;;;;;;6237662;22;20103;-82
2021/06/30 10:53:15;;;;;;;15.90;11.80;;;;;;;;;;6236694;22;20126;-83
2021/06/30 10:56:02;;;;;;;16.92;11.60;;;;;;;;;;6232934;22;20016;-83
2021/06/30 10:58:33;;;;;;;19.92;12.48;;;;;;;;;;6237087;22;20339;-83
2021/06/30 11:01:19;;;;;;;20.75;12.88;;;;;;;;;;6237471;22;20107;-82
2021/06/30 11:07:33;;;;;;;15.30;12.80;;;;;;;;;;6237257;22;20024;-81
2021/06/30 11:24:55;;;;;;;14.30;11.97;;;;;;;;;;6175013;23;20075;-82
2021/06/30 11:27:44;;;;;;;14.80;11.13;;;;;;;;;;6178826;23;20109;-83
2021/06/30 11:40:18;;;;;;;;;;;;;;;;;;6093039;23;20070;-82
2021/06/30 11:50:20;;;;;;;20.30;12.68;;;;;;;;;;6164746;23;20051;-83
2021/06/30 11:53:39;;;;;;;;;;;;;;;;;;;;;
2021/06/30 11:57:06;;;;;;;17.02;12.02;;;;;;;;;;6211745;23;20028;-83
2021/06/30 12:04:20;;;;;;;;;;;;;;;;;;;;;
2021/06/30 12:31:39;;;;;;;19.95;13.65;;;;;;;;;;5948959;24;20032;-84
2021/06/30 12:45:45;;;;;;;;;;;;;;;;;;;;;
2021/06/30 13:13:00;;;;;;;;;;;;;;;;;;;;;
2021/06/30 13:19:15;;;;;;;21.63;13.23;;;;;;;;;;5832540;24;20167;-83
2021/06/30 13:39:34;;;;;;;;;;;;;;;;;;;;;
2021/06/30 14:02:28;;;;;;;20.60;15.15;;;;;;;;;;6028753;23;20027;-83
2021/06/30 14:05:20;;;;;;;22.80;15.80;;;;;;;;;;6059359;23;20144;-85
2021/06/30 14:16:04;;;;;;;26.42;15.60;;;;;;;;;;5891975;24;20025;-84
2021/06/30 14:21:55;;;;;;;;;;;;;;;;;;;;;
2021/06/30 14:25:17;;;;;;;30.48;18.02;;;;;;;;;;5974512;23;20027;-85
2021/06/30 14:28:21;;;;;;;28.15;16.55;;;;;;;;;;5952305;24;20043;-85
2021/06/30 14:31:40;;;;;;;24.92;15.57;;;;;;;;;;5970421;24;20032;-85
2021/06/30 14:35:03;;;;;;;23.95;16.05;;;;;;;;;;5915769;24;20029;-85
2021/06/30 14:51:43;;;;;;;23.10;14.07;;;;;;;;;;5845589;24;20034;-84
2021/06/30 14:54:55;;;;;;;27.42;16.55;;;;;;;;;;5816762;24;20026;-87
2021/06/30 14:57:43;;;;;;;24.75;16.83;;;;;;;;;;5787876;24;20071;-86
2021/06/30 15:04:04;;;;;;;21.48;15.98;;;;;;;;;;5809948;24;20360;-86
2021/06/30 15:07:02;;;;;;;21.23;14.95;;;;;;;;;;5808113;24;20192;-86
2021/06/30 15:10:27;;;;;;;;;;;;;;;;;;;;;
2021/06/30 15:13:38;;;;;;;19.50;13.38;;;;;;;;;;5890924;24;20214;-85
2021/06/30 15:16:58;;;;;;;;;;;;;;;;;;;;;
2021/06/30 15:20:06;;;;;;;14.80;11.05;;;;;;;;;;5809959;24;20440;-86
2021/06/30 15:23:30;;;;;;;;;;;;;;;;;;;;;
2021/06/30 15:26:32;;;;;;;13.55;10.00;;;;;;;;;;5802198;24;20041;-84
2021/06/30 15:29:52;;;;;;;12.75;9.93;;;;;;;;;;5898800;24;20050;-86
2021/06/30 15:47:14;;;;;;;11.45;7.95;;;;;;;;;;6033559;23;20014;-86
2021/06/30 16:08:34;;;;;;;;;;;;;;;;;;;;;
2021/06/30 16:15:18;;;;;;;9.27;7.00;;;;;;;;;;5989348;24;20271;-85
2021/06/30 16:18:19;;;;;;;6.85;6.15;;;;;;;;;;5981575;23;20397;-86
2021/06/30 16:24:42;;;;;;;7.22;6.50;;;;;;;;;;6060162;23;20045;-85
2021/06/30 16:28:09;;;;;;;;;;;;;;;;;;;;;
2021/06/30 16:31:29;;;;;;;10.48;6.50;;;;;;;;;;5998266;23;20031;-85
2021/06/30 16:34:52;;;;;;;11.55;7.65;;;;;;;;;;5989311;23;20023;-85
2021/06/30 16:37:40;;;;;;;7.55;6.47;;;;;;;;;;5997532;23;20042;-84
2021/06/30 16:47:54;;;;;;;9.52;7.30;;;;;;;;;;6118649;23;20016;-85
2021/06/30 16:51:05;;;;;;;8.02;6.53;;;;;;;;;;6095110;23;20287;-84
2021/06/30 16:54:07;;;;;;;7.82;6.93;;;;;;;;;;6139395;23;20035;-85
2021/06/30 16:57:27;;;;;;;;;;;;;;;;;;;;;
2021/06/30 17:04:42;;;;;;;14.38;7.93;;;;;;;;;;6035672;23;20076;-85
2021/06/30 17:10:55;;;;;;;10.30;8.35;;;;;;;;;;6032748;23;20041;-86
2021/06/30 17:17:49;;;;;;;14.68;8.13;;;;;;;;;;6030800;23;20142;-86
2021/06/30 17:30:32;;;;;;;9.45;6.78;;;;;;;;;;6104373;23;20029;-86
2021/06/30 17:33:28;;;;;;;8.30;6.90;;;;;;;;;;6149960;23;20057;-86
2021/06/30 17:39:46;;;;;;;9.93;7.15;;;;;;;;;;6244892;23;20070;-85
2021/06/30 17:42:51;;;;;;;11.70;7.45;;;;;;;;;;6195322;23;20028;-85
2021/06/30 17:45:58;;;;;;;9.32;7.47;;;;;;;;;;6123498;23;20018;-85
2021/06/30 17:48:53;;;;;;;11.85;7.10;;;;;;;;;;6124568;23;20018;-86
2021/06/30 17:54:45;;;;;;;8.40;6.53;;;;;;;;;;6126132;23;20040;-86
2021/06/30 17:57:25;;;;;;;10.32;6.90;;;;;;;;;;6108025;23;20481;-86
2021/06/30 17:59:56;;;;;;;9.45;7.40;;;;;;;;;;6098168;23;20026;-84
2021/06/30 18:02:23;;;;;;;10.02;6.95;;;;;;;;;;6096734;23;20601;-86
2021/06/30 18:04:54;;;;;;;10.27;8.13;;;;;;;;;;6097325;23;20088;-87
2021/06/30 18:07:33;;;;;;;10.93;7.93;;;;;;;;;;6122990;23;20034;-86
2021/06/30 18:10:01;;;;;;;10.63;8.45;;;;;;;;;;6096577;23;20094;-86
2021/06/30 18:12:28;;;;;;;15.50;8.98;;;;;;;;;;6121224;23;20085;-85
2021/06/30 18:15:03;;;;;;;11.23;8.40;;;;;;;;;;6123240;23;20029;-86
2021/06/30 18:17:30;;;;;;;13.63;9.63;;;;;;;;;;6124382;23;20054;-85
2021/06/30 18:20:08;;;;;;;15.65;9.82;;;;;;;;;;6172701;23;20068;-85
2021/06/30 18:22:44;;;;;;;11.40;8.70;;;;;;;;;;6221403;23;20076;-85
2021/06/30 18:25:23;;;;;;;10.15;8.98;;;;;;;;;;6217937;23;20032;-85
2021/06/30 18:28:06;;;;;;;15.27;9.93;;;;;;;;;;6244657;23;20023;-86
2021/06/30 18:30:42;;;;;;;13.27;9.00;;;;;;;;;;6219268;23;20028;-86
2021/06/30 18:37:24;;;;;;;12.05;8.82;;;;;;;;;;6220120;23;20120;-85
2021/06/30 18:40:18;;;;;;;14.10;9.10;;;;;;;;;;6235290;23;20024;-85
2021/06/30 18:43:01;;;;;;;16.70;10.23;;;;;;;;;;6218305;23;20035;-85
2021/06/30 18:45:48;;;;;;;14.65;9.90;;;;;;;;;;6245347;23;20099;-84
2021/06/30 18:48:32;;;;;;;12.40;9.32;;;;;;;;;;6209936;23;20044;-84
2021/06/30 18:51:04;;;;;;;14.00;10.65;;;;;;;;;;6243226;23;20043;-85
2021/06/30 18:53:53;;;;;;;12.35;9.30;;;;;;;;;;6247618;23;20025;-86
2021/06/30 18:56:43;;;;;;;14.38;10.10;;;;;;;;;;6245174;23;20024;-85
2021/06/30 19:00:09;;;;;;;;;;;;;;;;;;;;;
2021/06/30 19:02:53;;;;;;;16.65;10.25;;;;;;;;;;6243598;23;20024;-85
2021/06/30 19:08:58;;;;;;;19.17;10.70;;;;;;;;;;6245904;23;20093;-85
2021/06/30 19:11:46;;;;;;;15.13;10.60;;;;;;;;;;6257457;23;20228;-85
2021/06/30 19:14:42;;;;;;;19.63;10.23;;;;;;;;;;6248209;23;20051;-86
2021/06/30 19:20:55;;;;;;;16.35;10.30;;;;;;;;;;6043449;23;20356;-86
2021/06/30 19:23:59;;;;;;;;;;;;;;;;;;;;;
2021/06/30 19:27:08;;;;;;;;;;;;;;;;;;;;;
2021/06/30 19:29:57;;;;;;;15.65;8.80;;;;;;;;;;6089991;23;20021;-86
2021/06/30 19:33:19;;;;;;;14.95;9.55;;;;;;;;;;6093424;23;20026;-85
2021/06/30 19:35:58;;;;;;;14.30;8.45;;;;;;;;;;6114925;23;20155;-84
2021/06/30 19:38:25;;;;;;;13.88;8.48;;;;;;;;;;6196200;23;20083;-85
2021/06/30 19:40:55;;;;;;;12.40;7.78;;;;;;;;;;6209749;23;20103;-85
2021/06/30 19:43:48;;;;;;;;;;;;;;;;;;;;;
2021/06/30 19:46:25;;;;;;;17.70;9.60;;;;;;;;;;6216718;23;20379;-84
2021/06/30 19:48:58;;;;;;;11.63;7.93;;;;;;;;;;6214818;23;20039;-85
2021/06/30 19:51:45;;;;;;;12.23;7.55;;;;;;;;;;6192234;23;20035;-85
2021/06/30 19:54:23;;;;;;;11.55;8.38;;;;;;;;;;6192074;23;20060;-84
2021/06/30 19:57:12;;;;;;;12.52;8.60;;;;;;;;;;6213531;23;20024;-84
2021/06/30 19:59:39;;;;;;;15.30;8.02;;;;;;;;;;6187050;23;20051;-85
2021/06/30 20:02:09;;;;;;;12.32;8.38;;;;;;;;;;6216054;23;20072;-85
2021/06/30 20:04:44;;;;;;;13.50;8.20;;;;;;;;;;6216155;23;20035;-85
2021/06/30 20:07:43;;;;;;;16.10;7.97;;;;;;;;;;6215547;23;20526;-88
2021/06/30 20:10:16;;;;;;;13.70;7.63;;;;;;;;;;6178702;23;20091;-85